Time;durP1;ratioP1;P1;durP2;ratioP2;P2;SDS_P1;SDS_P2;PMS_P1;PMS_P2;Temp;Humidity;BMP_temperature;BMP_pressure;BME280_temperature;BME280_humidity;BME280_pressure;Samples;Min_cycle;Max_cycle;Signal;HPM_P1;HPM_P2
2023/01/01 00:01:28;;;;;;;2.40;1.90;;;;;13.30;94290.00;;;;7398104;19;20639;-74
2023/01/01 00:03:58;;;;;;;3.10;1.85;;;;;13.20;94303.00;;;;7399577;19;20149;-73
2023/01/01 00:06:30;;;;;;;4.50;1.80;;;;;13.20;94296.00;;;;7399186;19;20171;-74
2023/01/01 00:11:53;;;;;;;5.70;2.15;;;;;13.10;94287.00;;;;7402433;19;20148;-74
2023/01/01 00:14:27;;;;;;;3.28;1.90;;;;;12.60;94300.00;;;;7400559;19;20124;-74
2023/01/01 00:16:55;;;;;;;3.83;1.95;;;;;12.60;94297.00;;;;7401502;19;20169;-74
2023/01/01 00:19:23;;;;;;;2.85;2.22;;;;;12.50;94292.00;;;;7402746;19;20490;-74
2023/01/01 00:21:56;;;;;;;5.63;2.47;;;;;12.50;94297.00;;;;7401295;19;20587;-74
2023/01/01 00:24:24;;;;;;;3.45;2.20;;;;;12.50;94292.00;;;;7400858;19;20151;-74
2023/01/01 00:26:53;;;;;;;3.92;2.42;;;;;12.40;94291.00;;;;7400618;19;20128;-75
2023/01/01 00:29:30;;;;;;;4.53;2.75;;;;;12.20;94300.00;;;;7400798;19;20129;-74
2023/01/01 00:31:57;;;;;;;3.00;2.22;;;;;12.20;94300.00;;;;7401527;19;20133;-74
2023/01/01 00:34:25;;;;;;;3.33;2.10;;;;;12.10;94298.00;;;;7401764;19;20583;-74
2023/01/01 00:36:58;;;;;;;3.33;2.55;;;;;12.10;94300.00;;;;7401694;19;20192;-74
2023/01/01 00:39:26;;;;;;;5.13;2.53;;;;;12.20;94296.00;;;;7400589;19;20172;-74
2023/01/01 00:41:56;;;;;;;3.10;2.50;;;;;12.10;94303.00;;;;7401727;19;20579;-75
2023/01/01 00:44:29;;;;;;;3.95;3.00;;;;;12.20;94288.00;;;;7399876;19;20132;-73
2023/01/01 00:46:56;;;;;;;3.60;2.70;;;;;12.10;94296.00;;;;7400188;19;20148;-74
2023/01/01 00:49:24;;;;;;;4.63;3.08;;;;;12.10;94294.00;;;;7400285;19;20196;-74
2023/01/01 00:51:58;;;;;;;5.85;3.63;;;;;12.00;94292.00;;;;7400126;19;20143;-74
2023/01/01 00:54:25;;;;;;;5.13;3.15;;;;;11.70;94289.00;;;;7399857;19;20522;-74
2023/01/01 00:56:53;;;;;;;5.95;3.55;;;;;11.60;94284.00;;;;7400730;19;20131;-74
2023/01/01 00:59:27;;;;;;;4.68;3.35;;;;;11.70;94288.00;;;;7398964;19;20162;-74
2023/01/01 01:01:55;;;;;;;4.05;3.22;;;;;11.80;94299.00;;;;7398762;19;20575;-74
2023/01/01 01:04:24;;;;;;;5.45;3.22;;;;;11.60;94294.00;;;;7398897;19;20136;-74
2023/01/01 01:07:06;;;;;;;4.85;2.90;;;;;11.60;94295.00;;;;7397551;19;20560;-74
2023/01/01 01:09:39;;;;;;;6.00;2.95;;;;;11.70;94288.00;;;;7398169;19;20484;-73
2023/01/01 01:12:12;;;;;;;3.83;2.85;;;;;11.70;94288.00;;;;7400212;19;20199;-74
2023/01/01 01:14:45;;;;;;;4.18;2.90;;;;;11.60;94298.00;;;;7398925;19;20275;-74
2023/01/01 01:17:21;;;;;;;4.43;3.28;;;;;11.50;94297.00;;;;7398620;19;20150;-75
2023/01/01 01:19:48;;;;;;;4.82;4.07;;;;;11.40;94297.00;;;;7397674;19;20176;-74
2023/01/01 01:22:16;;;;;;;4.60;3.33;;;;;11.70;94297.00;;;;7399070;19;20663;-75
2023/01/01 01:24:55;;;;;;;4.70;3.60;;;;;11.30;94302.00;;;;7399411;19;20164;-75
2023/01/01 01:27:23;;;;;;;5.47;3.75;;;;;11.20;94308.00;;;;7398771;19;20113;-74
2023/01/01 01:29:57;;;;;;;6.03;3.42;;;;;11.10;94312.00;;;;7397738;19;20148;-74
2023/01/01 01:32:25;;;;;;;5.63;3.42;;;;;11.20;94317.00;;;;7400320;19;20462;-74
2023/01/01 01:34:52;;;;;;;3.65;3.00;;;;;11.20;94299.00;;;;7400026;19;20129;-74
2023/01/01 01:37:28;;;;;;;4.78;3.00;;;;;11.20;94300.00;;;;7397560;19;20153;-75
2023/01/01 01:39:55;;;;;;;4.78;2.97;;;;;11.40;94297.00;;;;7398222;19;20120;-75
2023/01/01 01:42:23;;;;;;;6.22;3.03;;;;;11.50;94305.00;;;;7397224;19;20582;-75
2023/01/01 01:45:02;;;;;;;4.95;2.75;;;;;11.90;94305.00;;;;7397167;19;20529;-75
2023/01/01 01:48:08;;;;;;;2.92;2.42;;;;;11.90;94298.00;;;;7398285;19;20537;-75
2023/01/01 01:50:52;;;;;;;3.78;2.50;;;;;11.70;94306.00;;;;7396166;19;20730;-74
2023/01/01 01:53:26;;;;;;;4.13;2.70;;;;;11.60;94303.00;;;;7398179;19;20211;-74
2023/01/01 01:56:04;;;;;;;2.70;2.20;;;;;11.70;94313.00;;;;7398746;19;20136;-74
2023/01/01 01:58:33;;;;;;;3.03;2.13;;;;;11.70;94303.00;;;;7397899;19;20131;-74
2023/01/01 02:01:07;;;;;;;9.45;2.83;;;;;11.80;94313.00;;;;7398606;19;20625;-75
2023/01/01 02:03:56;;;;;;;4.28;2.45;;;;;11.80;94321.00;;;;7396714;19;20231;-75
2023/01/01 02:06:45;;;;;;;4.00;2.53;;;;;11.60;94318.00;;;;7398872;19;20200;-75
2023/01/01 02:09:20;;;;;;;4.50;2.40;;;;;11.80;94310.00;;;;7399147;19;20623;-74
2023/01/01 02:11:54;;;;;;;5.35;2.50;;;;;11.90;94312.00;;;;7396407;19;20188;-75
2023/01/01 02:14:21;;;;;;;2.50;2.30;;;;;12.00;94317.00;;;;7398100;19;20534;-75
2023/01/01 02:17:00;;;;;;;3.42;2.58;;;;;12.00;94318.00;;;;7400389;19;20125;-76
2023/01/01 02:20:10;;;;;;;4.13;2.33;;;;;12.00;94310.00;;;;7400051;19;20583;-76
2023/01/01 02:23:14;;;;;;;4.40;2.67;;;;;12.10;94320.00;;;;7399646;19;20128;-75
2023/01/01 02:25:49;;;;;;;4.57;2.45;;;;;12.20;94314.00;;;;7407013;19;20152;-75
2023/01/01 02:28:48;;;;;;;5.07;2.55;;;;;12.00;94330.00;;;;7406325;19;20583;-75
2023/01/01 02:31:29;;;;;;;3.78;2.47;;;;;12.10;94326.00;;;;7403252;19;20149;-74
2023/01/01 02:34:11;;;;;;;5.00;2.90;;;;;12.00;94327.00;;;;7405548;19;20140;-74
2023/01/01 02:36:50;;;;;;;4.97;2.60;;;;;12.00;94319.00;;;;7406476;19;20121;-74
2023/01/01 02:39:21;;;;;;;8.23;2.50;;;;;12.10;94319.00;;;;7405866;19;20133;-74
2023/01/01 02:41:59;;;;;;;3.50;2.40;;;;;12.00;94317.00;;;;7406867;19;20200;-74
2023/01/01 02:44:33;;;;;;;2.97;2.30;;;;;12.00;94301.00;;;;7403155;19;20153;-75
2023/01/01 02:47:13;;;;;;;4.30;2.53;;;;;12.00;94308.00;;;;7405930;19;20612;-74
2023/01/01 02:50:04;;;;;;;4.85;2.50;;;;;11.90;94302.00;;;;7398235;19;20129;-74
2023/01/01 02:52:59;;;;;;;5.40;2.70;;;;;11.70;94310.00;;;;7406047;19;20196;-74
2023/01/01 02:55:58;;;;;;;4.28;2.50;;;;;11.80;94321.00;;;;7404683;19;20519;-75
2023/01/01 03:01:54;;;;;;;4.70;2.40;;;;;11.70;94310.00;;;;7404763;19;20141;-75
2023/01/01 03:04:32;;;;;;;4.63;2.40;;;;;11.70;94310.00;;;;7402056;19;20132;-75
2023/01/01 03:07:47;;;;;;;2.42;1.98;;;;;11.70;94310.00;;;;7402479;19;20455;-74
2023/01/01 03:10:30;;;;;;;6.32;2.65;;;;;11.60;94314.00;;;;7405963;19;20505;-74
2023/01/01 03:13:16;;;;;;;4.53;2.35;;;;;11.60;94315.00;;;;7407167;19;20128;-75
2023/01/01 03:16:16;;;;;;;4.97;2.15;;;;;11.70;94326.00;;;;7407313;19;20119;-74
2023/01/01 03:19:13;;;;;;;4.20;2.67;;;;;11.70;94317.00;;;;7403966;19;20141;-74
2023/01/01 03:21:58;;;;;;;3.20;2.25;;;;;11.60;94314.00;;;;7406221;19;20186;-75
2023/01/01 03:24:40;;;;;;;2.35;1.60;;;;;11.60;94327.00;;;;7405563;19;20144;-75
2023/01/01 03:27:42;;;;;;;5.80;2.22;;;;;11.50;94323.00;;;;7404659;19;20200;-75
2023/01/01 03:30:12;;;;;;;3.65;1.70;;;;;11.50;94317.00;;;;7404609;19;20120;-75
2023/01/01 03:33:02;;;;;;;4.70;2.15;;;;;11.50;94319.00;;;;7402124;19;20145;-74
2023/01/01 03:35:38;;;;;;;4.72;2.20;;;;;11.60;94318.00;;;;7403884;19;20188;-75
2023/01/01 03:38:36;;;;;;;2.95;1.70;;;;;11.50;94312.00;;;;7402365;19;20456;-75
2023/01/01 03:41:21;;;;;;;2.17;1.90;;;;;11.60;94315.00;;;;7403993;19;20180;-76
2023/01/01 03:44:13;;;;;;;2.45;1.77;;;;;11.60;94315.00;;;;7404044;19;20117;-75
2023/01/01 03:46:41;;;;;;;2.72;1.80;;;;;11.60;94317.00;;;;7403756;19;20651;-75
2023/01/01 03:49:16;;;;;;;3.17;1.75;;;;;11.40;94331.00;;;;7404115;19;20204;-75
2023/01/01 03:52:05;;;;;;;3.22;1.83;;;;;11.50;94326.00;;;;7401689;19;20123;-75
2023/01/01 03:55:07;;;;;;;3.67;1.90;;;;;11.70;94330.00;;;;7404856;19;20121;-75
2023/01/01 03:57:53;;;;;;;3.53;1.70;;;;;11.70;94325.00;;;;7404390;19;20129;-75
2023/01/01 04:00:41;;;;;;;5.25;2.00;;;;;11.50;94329.00;;;;7402086;19;20152;-75
2023/01/01 04:03:18;;;;;;;3.42;1.70;;;;;11.50;94325.00;;;;7402872;19;20611;-76
2023/01/01 04:06:00;;;;;;;3.15;1.45;;;;;11.50;94321.00;;;;7403873;19;20152;-75
2023/01/01 04:08:30;;;;;;;3.90;1.70;;;;;11.40;94324.00;;;;7403687;19;20521;-75
2023/01/01 04:13:56;;;;;;;5.07;1.50;;;;;11.40;94322.00;;;;7402896;19;20136;-75
2023/01/01 04:16:30;;;;;;;2.30;1.67;;;;;11.70;94320.00;;;;7405108;19;20207;-76
2023/01/01 04:18:58;;;;;;;1.75;1.33;;;;;11.60;94322.00;;;;7402714;19;20626;-76
2023/01/01 04:21:26;;;;;;;3.92;1.70;;;;;11.50;94312.00;;;;7403194;19;20133;-75
2023/01/01 04:24:00;;;;;;;1.95;1.17;;;;;11.50;94319.00;;;;7402894;19;20109;-76
2023/01/01 04:26:30;;;;;;;7.00;1.70;;;;;11.60;94318.00;;;;7402796;19;20607;-75
2023/01/01 04:29:00;;;;;;;3.28;1.75;;;;;11.50;94315.00;;;;7402725;19;20144;-76
2023/01/01 04:31:34;;;;;;;3.33;1.52;;;;;11.60;94321.00;;;;7403762;19;20148;-76
2023/01/01 04:34:02;;;;;;;3.60;1.58;;;;;11.60;94326.00;;;;7403177;19;20137;-76
2023/01/01 04:36:29;;;;;;;6.05;1.65;;;;;11.60;94335.00;;;;7402587;19;20557;-76
2023/01/01 04:39:04;;;;;;;3.65;1.58;;;;;11.50;94330.00;;;;7404743;19;20434;-75
2023/01/01 04:41:32;;;;;;;2.28;1.60;;;;;11.50;94339.00;;;;7402282;19;20117;-75
2023/01/01 04:44:00;;;;;;;3.05;1.58;;;;;11.60;94328.00;;;;7403401;19;20117;-75
2023/01/01 04:46:34;;;;;;;3.67;1.55;;;;;11.60;94331.00;;;;7402540;19;20689;-77
2023/01/01 04:49:01;;;;;;;2.22;1.42;;;;;11.70;94334.00;;;;7403397;19;20125;-75
2023/01/01 04:51:28;;;;;;;2.78;1.35;;;;;11.50;94330.00;;;;7400441;19;20554;-75
2023/01/01 04:54:03;;;;;;;3.00;1.77;;;;;11.50;94337.00;;;;7401872;19;20124;-75
2023/01/01 04:56:30;;;;;;;4.72;1.50;;;;;11.40;94333.00;;;;7400570;19;20158;-75
2023/01/01 04:58:58;;;;;;;2.50;1.48;;;;;11.50;94340.00;;;;7402504;19;20612;-75
2023/01/01 05:01:32;;;;;;;5.75;1.40;;;;;11.50;94342.00;;;;7402389;19;20129;-75
2023/01/01 05:04:00;;;;;;;3.03;1.48;;;;;11.50;94343.00;;;;7401903;19;20137;-75
2023/01/01 05:06:28;;;;;;;3.97;1.60;;;;;11.40;94341.00;;;;7400312;19;20177;-76
2023/01/01 05:09:04;;;;;;;2.10;1.35;;;;;11.40;94345.00;;;;7401958;19;20138;-76
2023/01/01 05:11:33;;;;;;;5.70;1.83;;;;;11.40;94342.00;;;;7400596;19;20587;-76
2023/01/01 05:14:01;;;;;;;2.13;1.35;;;;;11.50;94348.00;;;;7402436;19;20121;-75
2023/01/01 05:16:37;;;;;;;5.60;1.77;;;;;11.50;94353.00;;;;7400823;19;20146;-75
2023/01/01 05:19:06;;;;;;;3.20;1.48;;;;;11.30;94346.00;;;;7401146;19;20596;-75
2023/01/01 05:21:37;;;;;;;2.65;1.75;;;;;11.30;94356.00;;;;7402067;19;20124;-75
2023/01/01 05:24:11;;;;;;;3.95;1.65;;;;;11.20;94359.00;;;;7400067;19;20129;-75
2023/01/01 05:26:41;;;;;;;3.92;1.67;;;;;11.30;94362.00;;;;7401407;19;20131;-75
2023/01/01 05:29:09;;;;;;;4.88;2.25;;;;;11.30;94360.00;;;;7400518;19;20148;-75
2023/01/01 05:31:45;;;;;;;3.80;1.70;;;;;11.20;94360.00;;;;7399845;19;20215;-75
2023/01/01 05:34:12;;;;;;;7.18;1.75;;;;;11.30;94362.00;;;;7401470;19;20494;-76
2023/01/01 05:36:40;;;;;;;4.05;1.42;;;;;11.20;94366.00;;;;7400983;19;20446;-76
2023/01/01 05:39:14;;;;;;;4.22;1.75;;;;;11.20;94358.00;;;;7400424;19;20121;-75
2023/01/01 05:41:41;;;;;;;4.53;1.60;;;;;11.40;94352.00;;;;7400614;19;20596;-76
2023/01/01 05:44:10;;;;;;;4.63;1.65;;;;;11.30;94356.00;;;;7399907;19;20132;-75
2023/01/01 05:46:44;;;;;;;2.85;1.38;;;;;11.30;94363.00;;;;7400100;19;20619;-75
2023/01/01 05:49:12;;;;;;;5.95;1.63;;;;;11.40;94368.00;;;;7400332;19;20149;-75
2023/01/01 05:51:41;;;;;;;6.15;1.50;;;;;11.50;94360.00;;;;7400149;19;20634;-75
2023/01/01 05:54:16;;;;;;;3.72;1.80;;;;;11.40;94357.00;;;;7398973;19;20143;-74
2023/01/01 05:56:42;;;;;;;4.00;1.52;;;;;11.30;94365.00;;;;7398943;19;20153;-74
2023/01/01 05:59:10;;;;;;;3.50;1.63;;;;;11.40;94370.00;;;;7398377;19;20596;-74
2023/01/01 06:01:44;;;;;;;4.35;1.60;;;;;11.40;94371.00;;;;7400869;19;20141;-74
2023/01/01 06:04:16;;;;;;;4.93;1.65;;;;;11.40;94381.00;;;;7397482;19;20172;-74
2023/01/01 06:06:44;;;;;;;3.65;1.23;;;;;11.30;94377.00;;;;7399270;19;20136;-75
2023/01/01 06:09:25;;;;;;;3.25;1.42;;;;;11.30;94383.00;;;;7400043;19;20593;-75
2023/01/01 06:11:52;;;;;;;3.75;1.40;;;;;11.30;94394.00;;;;7398182;19;20129;-75
2023/01/01 06:14:26;;;;;;;4.10;1.48;;;;;11.30;94391.00;;;;7399885;19;20441;-74
2023/01/01 06:16:53;;;;;;;3.08;1.70;;;;;11.30;94387.00;;;;7399113;19;20589;-74
2023/01/01 06:19:21;;;;;;;3.25;1.40;;;;;11.30;94395.00;;;;7399758;19;20125;-74
2023/01/01 06:21:55;;;;;;;3.72;1.73;;;;;11.20;94395.00;;;;7393575;19;20500;-74
2023/01/01 06:24:22;;;;;;;4.93;1.42;;;;;11.20;94386.00;;;;7393972;19;20181;-72
2023/01/01 06:27:17;;;;;;;3.78;1.50;;;;;11.20;94384.00;;;;7398350;19;20139;-73
2023/01/01 06:29:51;;;;;;;4.00;1.92;;;;;11.20;94389.00;;;;7398463;19;20140;-72
2023/01/01 06:32:19;;;;;;;2.95;1.92;;;;;11.10;94389.00;;;;7398940;19;20164;-74
2023/01/01 06:34:46;;;;;;;4.47;1.88;;;;;11.30;94394.00;;;;7399807;19;20128;-73
2023/01/01 06:37:20;;;;;;;4.65;1.70;;;;;11.10;94393.00;;;;7398646;19;20129;-74
2023/01/01 06:39:48;;;;;;;3.40;1.60;;;;;11.10;94390.00;;;;7399710;19;20140;-72
2023/01/01 06:42:15;;;;;;;6.15;1.90;;;;;11.10;94388.00;;;;7398610;19;20145;-73
2023/01/01 06:44:51;;;;;;;5.82;1.60;;;;;11.10;94390.00;;;;7398298;19;20137;-73
2023/01/01 06:47:19;;;;;;;3.22;1.73;;;;;11.00;94405.00;;;;7399480;19;20184;-73
2023/01/01 06:49:46;;;;;;;4.50;2.00;;;;;11.10;94387.00;;;;7399507;19;20121;-73
2023/01/01 06:52:20;;;;;;;4.72;1.70;;;;;10.90;94388.00;;;;7398643;19;20137;-74
2023/01/01 06:54:48;;;;;;;5.97;1.60;;;;;10.90;94392.00;;;;7397890;19;20133;-73
2023/01/01 06:57:15;;;;;;;4.10;1.40;;;;;10.80;94395.00;;;;7398813;19;20213;-73
2023/01/01 06:59:49;;;;;;;4.20;1.58;;;;;10.90;94404.00;;;;7393439;19;20512;-74
2023/01/01 07:02:20;;;;;;;3.78;1.60;;;;;10.80;94394.00;;;;7399319;19;20489;-73
2023/01/01 07:04:49;;;;;;;6.18;1.70;;;;;10.90;94398.00;;;;7398495;19;20484;-73
2023/01/01 07:07:29;;;;;;;4.65;1.40;;;;;10.90;94403.00;;;;7397961;19;20156;-73
2023/01/01 07:10:03;;;;;;;2.13;1.70;;;;;10.70;94396.00;;;;7401127;19;20480;-74
2023/01/01 07:12:37;;;;;;;5.43;1.98;;;;;10.60;94405.00;;;;7404689;19;20121;-73
2023/01/01 07:15:05;;;;;;;5.57;1.52;;;;;10.70;94407.00;;;;7407831;19;20713;-73
2023/01/01 07:17:33;;;;;;;4.10;1.98;;;;;10.70;94415.00;;;;7407427;19;20150;-72
2023/01/01 07:20:08;;;;;;;4.43;1.70;;;;;10.60;94420.00;;;;7406909;19;20155;-74
2023/01/01 07:22:38;;;;;;;6.03;1.95;;;;;10.60;94433.00;;;;7407073;19;20496;-73
2023/01/01 07:25:09;;;;;;;5.47;1.67;;;;;10.80;94421.00;;;;7407298;19;20488;-73
2023/01/01 07:27:43;;;;;;;8.93;1.90;;;;;10.80;94414.00;;;;7406650;19;20124;-73
2023/01/01 07:30:11;;;;;;;4.78;1.85;;;;;11.00;94408.00;;;;7406878;19;20141;-72
2023/01/01 07:32:39;;;;;;;4.18;1.48;;;;;11.10;94417.00;;;;7405198;19;20157;-73
2023/01/01 07:35:12;;;;;;;4.50;1.77;;;;;11.30;94415.00;;;;7408235;19;20536;-73
2023/01/01 07:37:40;;;;;;;4.63;1.70;;;;;11.20;94424.00;;;;7403216;19;20159;-73
2023/01/01 07:40:08;;;;;;;3.53;1.60;;;;;11.40;94437.00;;;;7405467;19;20137;-74
2023/01/01 07:42:42;;;;;;;5.93;1.60;;;;;11.30;94435.00;;;;7406081;19;20478;-73
2023/01/01 07:45:12;;;;;;;5.80;1.67;;;;;11.30;94427.00;;;;7405430;19;20136;-72
2023/01/01 07:47:39;;;;;;;5.55;1.80;;;;;11.40;94428.00;;;;7407842;19;20148;-73
2023/01/01 07:50:16;;;;;;;5.05;1.88;;;;;11.40;94440.00;;;;7403779;19;20145;-73
2023/01/01 07:52:46;;;;;;;7.45;1.70;;;;;11.50;94445.00;;;;7403984;19;20148;-74
2023/01/01 07:55:15;;;;;;;3.47;1.70;;;;;11.30;94442.00;;;;7404379;19;20156;-74
2023/01/01 07:57:50;;;;;;;6.03;1.80;;;;;11.50;94455.00;;;;7406912;19;20129;-73
2023/01/01 08:00:20;;;;;;;3.85;1.67;;;;;11.40;94451.00;;;;7404266;19;20147;-73
2023/01/01 08:02:48;;;;;;;7.57;1.60;;;;;11.40;94455.00;;;;7404224;19;20148;-73
2023/01/01 08:05:23;;;;;;;4.18;1.90;;;;;11.40;94458.00;;;;7403780;19;20132;-72
2023/01/01 08:08:00;;;;;;;7.35;2.13;;;;;11.40;94457.00;;;;7399266;19;20185;-73
2023/01/01 08:10:35;;;;;;;5.63;1.65;;;;;11.40;94469.00;;;;7405668;19;20149;-73
2023/01/01 08:13:04;;;;;;;5.32;1.90;;;;;11.40;94472.00;;;;7402697;19;20140;-73
2023/01/01 08:15:32;;;;;;;5.47;1.73;;;;;11.20;94470.00;;;;7403438;19;20140;-74
2023/01/01 08:18:08;;;;;;;4.15;1.40;;;;;11.20;94473.00;;;;7403047;19;20152;-73
2023/01/01 08:20:38;;;;;;;8.75;1.70;;;;;11.40;94468.00;;;;7400879;19;20147;-73
2023/01/01 08:23:05;;;;;;;5.68;1.70;;;;;11.50;94476.00;;;;7403647;19;20639;-72
2023/01/01 08:25:39;;;;;;;4.95;2.15;;;;;11.70;94470.00;;;;7404479;19;20121;-73
2023/01/01 08:28:09;;;;;;;3.72;2.00;;;;;11.70;94482.00;;;;7404809;19;20196;-73
2023/01/01 08:30:36;;;;;;;3.33;1.90;;;;;12.00;94476.00;;;;7402995;19;20141;-73
2023/01/01 08:33:10;;;;;;;6.80;1.98;;;;;12.20;94467.00;;;;7402435;19;20155;-73
2023/01/01 08:35:44;;;;;;;5.03;1.80;;;;;12.60;94470.00;;;;7402320;19;20172;-73
2023/01/01 08:38:20;;;;;;;3.95;1.45;;;;;13.10;94465.00;;;;7404090;19;20136;-73
2023/01/01 08:40:55;;;;;;;7.68;1.98;;;;;13.30;94471.00;;;;7402425;19;20132;-73
2023/01/01 08:43:22;;;;;;;5.78;2.08;;;;;13.30;94477.00;;;;7403148;19;20131;-73
2023/01/01 08:45:52;;;;;;;5.43;1.50;;;;;13.50;94477.00;;;;7402438;19;20511;-74
2023/01/01 08:48:26;;;;;;;5.70;1.80;;;;;13.60;94480.00;;;;7398882;19;20647;-75
2023/01/01 08:50:59;;;;;;;5.20;1.73;;;;;13.90;94473.00;;;;7400677;19;20491;-76
2023/01/01 08:53:32;;;;;;;5.32;1.80;;;;;14.40;94474.00;;;;7398173;19;20129;-75
2023/01/01 08:56:06;;;;;;;8.07;1.73;;;;;14.50;94482.00;;;;7399651;19;20518;-76
2023/01/01 08:58:40;;;;;;;4.88;1.50;;;;;14.50;94475.00;;;;7399246;19;20184;-75
2023/01/01 09:01:09;;;;;;;7.60;1.63;;;;;14.40;94475.00;;;;7399889;19;20141;-75
2023/01/01 09:03:36;;;;;;;6.25;1.88;;;;;14.30;94481.00;;;;7396635;19;20208;-75
2023/01/01 09:06:17;;;;;;;6.43;1.65;;;;;14.10;94492.00;;;;7399535;19;20165;-74
2023/01/01 09:08:53;;;;;;;3.05;1.67;;;;;14.00;94481.00;;;;7399545;19;20176;-74
2023/01/01 09:11:27;;;;;;;4.13;1.95;;;;;14.00;94485.00;;;;7399906;19;20132;-73
2023/01/01 09:13:56;;;;;;;9.73;2.15;;;;;13.90;94481.00;;;;7396844;19;20172;-73
2023/01/01 09:16:23;;;;;;;7.80;1.90;;;;;13.90;94482.00;;;;7398181;19;20639;-73
2023/01/01 09:18:57;;;;;;;3.58;1.45;;;;;13.80;94476.00;;;;7398990;19;20602;-76
2023/01/01 09:21:25;;;;;;;4.88;1.80;;;;;14.20;94476.00;;;;7398119;19;20121;-74
2023/01/01 09:23:52;;;;;;;6.93;1.80;;;;;14.20;94478.00;;;;7397972;19;20187;-75
2023/01/01 09:26:26;;;;;;;6.63;2.10;;;;;14.20;94488.00;;;;7398234;19;20591;-74
2023/01/01 09:28:54;;;;;;;5.03;1.88;;;;;14.40;94478.00;;;;7398298;19;20166;-75
2023/01/01 09:31:23;;;;;;;5.32;2.05;;;;;14.20;94482.00;;;;7399634;19;20583;-75
2023/01/01 09:33:59;;;;;;;7.30;1.70;;;;;14.40;94491.00;;;;7396498;19;20136;-74
2023/01/01 09:36:29;;;;;;;4.50;1.67;;;;;14.70;94486.00;;;;7396835;19;20133;-74
2023/01/01 09:38:58;;;;;;;8.95;2.00;;;;;15.10;94482.00;;;;7399672;19;20153;-74
2023/01/01 09:41:49;;;;;;;7.63;1.80;;;;;15.50;94489.00;;;;7398607;19;20135;-74
2023/01/01 09:44:48;;;;;;;3.83;1.58;;;;;15.70;94476.00;;;;7398812;19;20129;-75
2023/01/01 09:47:39;;;;;;;6.50;1.60;;;;;16.10;94491.00;;;;7398899;19;20156;-75
2023/01/01 09:50:45;;;;;;;9.93;1.95;;;;;16.40;94493.00;;;;7397979;19;20152;-75
2023/01/01 09:53:36;;;;;;;4.72;1.70;;;;;16.50;94495.00;;;;7397330;19;20200;-75
2023/01/01 09:56:12;;;;;;;5.10;1.90;;;;;16.30;94495.00;;;;7397816;19;20129;-75
2023/01/01 09:58:46;;;;;;;6.13;1.50;;;;;16.10;94497.00;;;;7398262;19;20124;-73
2023/01/01 10:01:28;;;;;;;9.85;1.95;;;;;16.40;94491.00;;;;7396470;19;20133;-75
2023/01/01 10:04:32;;;;;;;10.35;2.00;;;;;16.90;94502.00;;;;7396023;19;20140;-75
2023/01/01 10:07:10;;;;;;;7.40;1.98;;;;;16.60;94498.00;;;;7395779;19;20148;-77
2023/01/01 10:10:02;;;;;;;4.90;2.00;;;;;16.50;94503.00;;;;7398263;19;20132;-74
2023/01/01 10:12:54;;;;;;;9.93;2.22;;;;;17.00;94501.00;;;;7395735;19;20159;-74
2023/01/01 10:15:38;;;;;;;6.10;1.90;;;;;17.40;94496.00;;;;7396798;19;20579;-74
2023/01/01 10:18:18;;;;;;;9.18;2.05;;;;;17.50;94494.00;;;;7397441;19;20603;-73
2023/01/01 10:21:23;;;;;;;8.15;2.38;;;;;17.60;94499.00;;;;7398420;19;20151;-74
2023/01/01 10:24:29;;;;;;;9.30;2.22;;;;;17.60;94485.00;;;;7395397;19;20149;-74
2023/01/01 10:27:04;;;;;;;8.38;2.00;;;;;17.20;94484.00;;;;7397526;19;20113;-74
2023/01/01 10:29:45;;;;;;;5.20;2.05;;;;;17.30;94482.00;;;;7396706;19;20132;-73
2023/01/01 10:32:34;;;;;;;3.97;2.08;;;;;17.50;94477.00;;;;7396835;19;20129;-74
2023/01/01 10:35:12;;;;;;;8.10;2.05;;;;;17.70;94481.00;;;;7394969;19;20132;-76
2023/01/01 10:37:53;;;;;;;5.88;2.60;;;;;18.20;94469.00;;;;7395320;19;20133;-73
2023/01/01 10:40:23;;;;;;;7.57;2.40;;;;;18.80;94485.00;;;;7396001;19;20467;-74
2023/01/01 10:43:04;;;;;;;7.72;2.25;;;;;18.50;94474.00;;;;7396025;19;20147;-73
2023/01/01 10:45:34;;;;;;;8.63;2.05;;;;;18.60;94478.00;;;;7401937;19;20144;-74
2023/01/01 10:48:13;;;;;;;8.85;2.15;;;;;18.20;94476.00;;;;7402942;19;20155;-73
2023/01/01 10:50:50;;;;;;;5.65;1.88;;;;;18.10;94477.00;;;;7402369;19;20145;-74
2023/01/01 10:53:40;;;;;;;5.10;2.13;;;;;18.20;94474.00;;;;7402187;19;20958;-74
2023/01/01 10:56:16;;;;;;;7.95;1.90;;;;;18.20;94480.00;;;;7402638;19;20137;-74
2023/01/01 10:58:55;;;;;;;8.35;1.83;;;;;18.40;94473.00;;;;7402971;19;20611;-74
2023/01/01 11:01:28;;;;;;;10.93;2.47;;;;;18.50;94479.00;;;;7403322;19;20139;-73
2023/01/01 11:04:19;;;;;;;5.03;2.20;;;;;18.80;94476.00;;;;7401578;19;20147;-74
2023/01/01 11:06:54;;;;;;;7.53;1.90;;;;;18.90;94484.00;;;;7400341;19;20527;-74
2023/01/01 11:09:37;;;;;;;10.07;2.58;;;;;19.80;94485.00;;;;7397527;19;20185;-74
2023/01/01 11:12:07;;;;;;;8.23;2.00;;;;;19.80;94481.00;;;;7401548;19;20160;-73
2023/01/01 11:15:03;;;;;;;5.70;2.10;;;;;19.70;94476.00;;;;7402045;19;20133;-74
2023/01/01 11:17:36;;;;;;;9.15;2.80;;;;;20.60;94482.00;;;;7402197;19;20602;-74
2023/01/01 11:20:18;;;;;;;10.68;2.33;;;;;20.30;94469.00;;;;7403224;19;20160;-74
2023/01/01 11:22:52;;;;;;;7.93;2.35;;;;;20.20;94460.00;;;;7402122;19;20161;-74
2023/01/01 11:25:27;;;;;;;6.60;2.38;;;;;19.70;94465.00;;;;7402446;19;20129;-74
2023/01/01 11:28:19;;;;;;;9.85;2.05;;;;;19.30;94458.00;;;;7401432;19;20490;-74
2023/01/01 11:31:04;;;;;;;6.38;2.17;;;;;19.20;94455.00;;;;7401752;19;20140;-73
2023/01/01 11:33:35;;;;;;;8.85;1.70;;;;;19.70;94446.00;;;;7400956;19;20167;-73
2023/01/01 11:36:10;;;;;;;8.13;2.83;;;;;19.10;94451.00;;;;7403408;19;20591;-73
2023/01/01 11:38:38;;;;;;;4.95;1.90;;;;;18.40;94453.00;;;;7402973;19;20196;-74
2023/01/01 11:41:06;;;;;;;11.35;2.00;;;;;17.80;94440.00;;;;7404497;19;20129;-73
2023/01/01 11:43:46;;;;;;;8.18;2.35;;;;;17.60;94441.00;;;;7403376;19;20168;-73
2023/01/01 11:46:22;;;;;;;12.05;2.58;;;;;17.80;94439.00;;;;7395878;19;20125;-75
2023/01/01 11:48:57;;;;;;;9.45;2.40;;;;;18.40;94427.00;;;;7399983;19;20131;-75
2023/01/01 11:51:30;;;;;;;8.15;2.38;;;;;18.90;94425.00;;;;7397405;19;20172;-75
2023/01/01 11:54:21;;;;;;;5.90;2.05;;;;;18.60;94421.00;;;;7397365;19;20603;-73
2023/01/01 11:56:56;;;;;;;8.32;1.90;;;;;18.90;94424.00;;;;7397751;19;20149;-74
2023/01/01 11:59:45;;;;;;;7.50;2.03;;;;;19.10;94422.00;;;;7402111;19;20457;-73
2023/01/01 12:02:27;;;;;;;5.95;2.05;;;;;19.10;94418.00;;;;7398921;19;20180;-74
2023/01/01 12:05:21;;;;;;;8.48;2.17;;;;;19.30;94418.00;;;;7401621;19;20158;-75
2023/01/01 12:07:56;;;;;;;8.88;1.95;;;;;19.80;94416.00;;;;7399706;19;20175;-73
2023/01/01 12:10:57;;;;;;;5.65;2.45;;;;;20.10;94402.00;;;;7400558;19;20137;-72
2023/01/01 12:13:29;;;;;;;9.63;2.13;;;;;19.90;94410.00;;;;7400009;19;20144;-74
2023/01/01 12:16:12;;;;;;;7.53;2.17;;;;;19.20;94402.00;;;;7400998;19;20132;-74
2023/01/01 12:19:18;;;;;;;8.32;2.35;;;;;19.10;94405.00;;;;7396283;19;20184;-75
2023/01/01 12:21:58;;;;;;;5.60;1.77;;;;;19.20;94406.00;;;;7401696;19;20129;-75
2023/01/01 12:24:35;;;;;;;5.75;2.10;;;;;19.60;94396.00;;;;7397640;19;20157;-74
2023/01/01 12:27:24;;;;;;;8.40;2.35;;;;;20.10;94401.00;;;;7396265;19;20532;-74
2023/01/01 12:30:12;;;;;;;6.53;2.33;;;;;20.40;94395.00;;;;7398677;19;20549;-74
2023/01/01 12:33:06;;;;;;;7.07;2.22;;;;;20.60;94401.00;;;;7398864;19;20152;-74
2023/01/01 12:36:06;;;;;;;4.90;2.55;;;;;20.60;94400.00;;;;7396703;19;20484;-73
2023/01/01 12:39:22;;;;;;;9.52;2.45;;;;;20.00;94397.00;;;;7400433;19;20127;-74
2023/01/01 12:42:32;;;;;;;8.27;2.35;;;;;19.50;94396.00;;;;7399971;19;20125;-75
2023/01/01 12:45:32;;;;;;;10.80;2.33;;;;;19.80;94388.00;;;;7398145;19;20470;-74
2023/01/01 12:48:29;;;;;;;6.15;2.20;;;;;20.00;94389.00;;;;7397263;19;20612;-74
2023/01/01 12:51:15;;;;;;;5.47;2.08;;;;;19.90;94393.00;;;;7397774;19;20180;-74
2023/01/01 12:54:01;;;;;;;8.05;1.92;;;;;19.20;94392.00;;;;7397873;19;20477;-74
2023/01/01 12:56:49;;;;;;;9.13;2.08;;;;;19.20;94400.00;;;;7398712;19;20144;-73
2023/01/01 12:59:22;;;;;;;5.35;2.10;;;;;19.50;94400.00;;;;7398347;19;20456;-74
2023/01/01 13:02:02;;;;;;;8.90;2.00;;;;;19.90;94393.00;;;;7393724;19;20148;-74
2023/01/01 13:04:29;;;;;;;9.90;2.28;;;;;19.60;94396.00;;;;7391844;19;20176;-74
2023/01/01 13:07:04;;;;;;;14.30;2.38;;;;;19.40;94399.00;;;;7396243;19;20148;-74
2023/01/01 13:09:47;;;;;;;8.27;2.38;;;;;17.90;94404.00;;;;7398315;19;20487;-73
2023/01/01 13:12:18;;;;;;;8.13;2.00;;;;;17.10;94396.00;;;;7397188;19;20147;-74
2023/01/01 13:14:52;;;;;;;5.55;2.13;;;;;16.70;94395.00;;;;7398706;19;20647;-74